Terminal Aerodrome Forecast
Issued by NWS Charleston, WV

Current Version | Previous Version | Graphics & Text | Print | Product List | Glossary Off
Versions: 1 2 3 4 5 6 7 8 9 10 11 12 13 14 15 16 17 18 19 20 21 22 23 24

269
FTUS41 KRLX 061134
TAFPKB
TAF
KPKB 061134Z 0612/0712 09006KT P6SM OVC040
     FM061400 10009G15KT P6SM OVC035
      TEMPO 0615/0618 5SM -RA OVC025
     FM061800 15010G22KT 5SM -RA OVC015
      TEMPO 0618/0621 2SM -RA OVC007
     FM062100 16009KT 3SM -RA OVC008
     FM062300 17008KT P6SM OVC010
     FM070300 27009G17KT P6SM BKN015=

USA.gov is the U.S. government's official web portal to all federal, state and local government web resources and services.